sensor_id;sensor_type;location;lat;lon;timestamp;pressure;altitude;pressure_sealevel;temperature;humidity
44765;BME280;30484;52.382;5.260;2022-09-09T00:02:10;100772.22;;;24.59;100.00
44765;BME280;30484;52.382;5.260;2022-09-09T00:04:58;100771.84;;;25.04;100.00
44765;BME280;30484;52.382;5.260;2022-09-09T00:07:40;100769.94;;;24.05;100.00
44765;BME280;30484;52.382;5.260;2022-09-09T00:10:20;100760.56;;;23.91;100.00
44765;BME280;30484;52.382;5.260;2022-09-09T00:12:59;100764.38;;;24.32;100.00
44765;BME280;30484;52.382;5.260;2022-09-09T00:15:38;100761.44;;;23.66;100.00
44765;BME280;30484;52.382;5.260;2022-09-09T00:18:17;100758.66;;;23.49;100.00
44765;BME280;30484;52.382;5.260;2022-09-09T00:20:55;100750.66;;;24.07;100.00
44765;BME280;30484;52.382;5.260;2022-09-09T00:23:29;100755.28;;;24.06;100.00
44765;BME280;30484;52.382;5.260;2022-09-09T00:26:08;100753.94;;;23.59;100.00
44765;BME280;30484;52.382;5.260;2022-09-09T00:28:43;100743.56;;;24.39;100.00
44765;BME280;30484;52.382;5.260;2022-09-09T00:31:20;100751.88;;;24.12;100.00
44765;BME280;30484;52.382;5.260;2022-09-09T00:33:53;100747.97;;;24.89;100.00
44765;BME280;30484;52.382;5.260;2022-09-09T00:36:25;100749.16;;;23.53;100.00
44765;BME280;30484;52.382;5.260;2022-09-09T00:38:59;100748.09;;;23.89;100.00
44765;BME280;30484;52.382;5.260;2022-09-09T00:41:42;100744.72;;;24.20;100.00
44765;BME280;30484;52.382;5.260;2022-09-09T00:44:27;100737.56;;;24.35;100.00
44765;BME280;30484;52.382;5.260;2022-09-09T00:47:11;100748.72;;;23.32;100.00
44765;BME280;30484;52.382;5.260;2022-09-09T00:49:56;100743.94;;;23.76;100.00
44765;BME280;30484;52.382;5.260;2022-09-09T00:52:36;100750.88;;;24.55;100.00
44765;BME280;30484;52.382;5.260;2022-09-09T00:55:16;100749.94;;;23.11;100.00
44765;BME280;30484;52.382;5.260;2022-09-09T00:57:51;100753.75;;;24.12;100.00
44765;BME280;30484;52.382;5.260;2022-09-09T01:00:24;100754.47;;;24.39;100.00
44765;BME280;30484;52.382;5.260;2022-09-09T01:03:04;100756.50;;;24.37;100.00
44765;BME280;30484;52.382;5.260;2022-09-09T01:05:45;100760.03;;;23.96;100.00
44765;BME280;30484;52.382;5.260;2022-09-09T01:11:22;100757.50;;;23.94;100.00
44765;BME280;30484;52.382;5.260;2022-09-09T01:13:53;100757.84;;;24.08;100.00
44765;BME280;30484;52.382;5.260;2022-09-09T01:16:26;100757.22;;;24.39;100.00
44765;BME280;30484;52.382;5.260;2022-09-09T01:18:58;100749.19;;;24.29;100.00
44765;BME280;30484;52.382;5.260;2022-09-09T01:21:38;100748.97;;;24.14;100.00
44765;BME280;30484;52.382;5.260;2022-09-09T01:24:22;100748.78;;;22.87;100.00
44765;BME280;30484;52.382;5.260;2022-09-09T01:26:58;100751.44;;;23.40;100.00
44765;BME280;30484;52.382;5.260;2022-09-09T01:29:29;100753.75;;;23.18;100.00
44765;BME280;30484;52.382;5.260;2022-09-09T01:31:59;100757.94;;;23.39;100.00
44765;BME280;30484;52.382;5.260;2022-09-09T01:34:35;100754.06;;;23.92;100.00
44765;BME280;30484;52.382;5.260;2022-09-09T01:37:06;100744.03;;;23.58;100.00
44765;BME280;30484;52.382;5.260;2022-09-09T01:39:37;100749.78;;;23.47;100.00
44765;BME280;30484;52.382;5.260;2022-09-09T01:42:11;100751.00;;;22.92;100.00
44765;BME280;30484;52.382;5.260;2022-09-09T01:44:40;100747.84;;;23.05;100.00
44765;BME280;30484;52.382;5.260;2022-09-09T01:47:09;100735.09;;;23.40;100.00
44765;BME280;30484;52.382;5.260;2022-09-09T01:49:37;100738.50;;;23.34;100.00
44765;BME280;30484;52.382;5.260;2022-09-09T01:52:05;100745.63;;;23.26;100.00
44765;BME280;30484;52.382;5.260;2022-09-09T01:54:35;100736.47;;;23.87;100.00
44765;BME280;30484;52.382;5.260;2022-09-09T01:57:13;100733.72;;;23.36;100.00
44765;BME280;30484;52.382;5.260;2022-09-09T02:00:00;100732.34;;;23.32;100.00
44765;BME280;30484;52.382;5.260;2022-09-09T02:02:38;100729.88;;;23.98;100.00
44765;BME280;30484;52.382;5.260;2022-09-09T02:05:29;100726.97;;;23.99;100.00
44765;BME280;30484;52.382;5.260;2022-09-09T02:08:06;100734.53;;;22.49;100.00
44765;BME280;30484;52.382;5.260;2022-09-09T02:10:45;100736.59;;;23.34;100.00
44765;BME280;30484;52.382;5.260;2022-09-09T02:13:20;100739.41;;;23.51;100.00
44765;BME280;30484;52.382;5.260;2022-09-09T02:15:55;100730.13;;;23.78;100.00
44765;BME280;30484;52.382;5.260;2022-09-09T02:18:29;100734.47;;;24.05;100.00
44765;BME280;30484;52.382;5.260;2022-09-09T02:21:03;100726.31;;;22.93;100.00
44765;BME280;30484;52.382;5.260;2022-09-09T02:23:32;100733.13;;;22.45;100.00
44765;BME280;30484;52.382;5.260;2022-09-09T02:26:02;100729.41;;;22.99;100.00
44765;BME280;30484;52.382;5.260;2022-09-09T02:28:34;100734.41;;;23.38;100.00
44765;BME280;30484;52.382;5.260;2022-09-09T02:31:05;100727.44;;;22.56;100.00
44765;BME280;30484;52.382;5.260;2022-09-09T02:33:38;100723.63;;;23.28;100.00
44765;BME280;30484;52.382;5.260;2022-09-09T02:36:09;100729.69;;;23.48;100.00
44765;BME280;30484;52.382;5.260;2022-09-09T02:38:44;100727.16;;;23.12;100.00
44765;BME280;30484;52.382;5.260;2022-09-09T02:41:17;100731.25;;;23.16;100.00
44765;BME280;30484;52.382;5.260;2022-09-09T02:43:50;100731.28;;;23.59;100.00
44765;BME280;30484;52.382;5.260;2022-09-09T02:46:41;100728.69;;;23.49;100.00
44765;BME280;30484;52.382;5.260;2022-09-09T02:49:21;100735.50;;;23.53;100.00
44765;BME280;30484;52.382;5.260;2022-09-09T02:52:01;100724.97;;;23.67;100.00
44765;BME280;30484;52.382;5.260;2022-09-09T02:54:32;100733.91;;;22.55;100.00
44765;BME280;30484;52.382;5.260;2022-09-09T02:57:10;100730.75;;;22.68;100.00
44765;BME280;30484;52.382;5.260;2022-09-09T02:59:40;100733.22;;;23.06;100.00
44765;BME280;30484;52.382;5.260;2022-09-09T03:02:11;100725.44;;;22.22;100.00
44765;BME280;30484;52.382;5.260;2022-09-09T03:04:40;100725.44;;;22.85;100.00
44765;BME280;30484;52.382;5.260;2022-09-09T03:07:10;100724.00;;;22.54;100.00
44765;BME280;30484;52.382;5.260;2022-09-09T03:09:39;100718.53;;;23.25;100.00
44765;BME280;30484;52.382;5.260;2022-09-09T03:12:07;100721.22;;;22.99;100.00
44765;BME280;30484;52.382;5.260;2022-09-09T03:14:37;100718.75;;;22.79;100.00
44765;BME280;30484;52.382;5.260;2022-09-09T03:17:09;100717.31;;;22.67;100.00
44765;BME280;30484;52.382;5.260;2022-09-09T03:19:37;100714.56;;;22.93;100.00
44765;BME280;30484;52.382;5.260;2022-09-09T03:22:06;100708.69;;;23.06;100.00
44765;BME280;30484;52.382;5.260;2022-09-09T03:24:34;100714.56;;;23.19;100.00
44765;BME280;30484;52.382;5.260;2022-09-09T03:27:03;100707.13;;;22.69;100.00
44765;BME280;30484;52.382;5.260;2022-09-09T03:29:31;100708.75;;;22.62;100.00
44765;BME280;30484;52.382;5.260;2022-09-09T03:31:59;100711.94;;;23.09;100.00
44765;BME280;30484;52.382;5.260;2022-09-09T03:34:29;100708.63;;;22.27;100.00
44765;BME280;30484;52.382;5.260;2022-09-09T03:36:58;100714.78;;;23.00;100.00
44765;BME280;30484;52.382;5.260;2022-09-09T03:39:26;100716.81;;;22.98;100.00
44765;BME280;30484;52.382;5.260;2022-09-09T03:41:57;100717.03;;;22.52;100.00
44765;BME280;30484;52.382;5.260;2022-09-09T03:44:25;100711.50;;;22.26;100.00
44765;BME280;30484;52.382;5.260;2022-09-09T03:46:53;100710.28;;;22.38;100.00
44765;BME280;30484;52.382;5.260;2022-09-09T03:49:21;100718.28;;;21.58;100.00
44765;BME280;30484;52.382;5.260;2022-09-09T03:51:52;100709.25;;;22.21;100.00
44765;BME280;30484;52.382;5.260;2022-09-09T03:54:20;100709.66;;;22.08;100.00
44765;BME280;30484;52.382;5.260;2022-09-09T03:56:51;100711.81;;;22.85;100.00
44765;BME280;30484;52.382;5.260;2022-09-09T03:59:19;100717.53;;;23.34;100.00
44765;BME280;30484;52.382;5.260;2022-09-09T04:01:49;100709.63;;;22.62;100.00
44765;BME280;30484;52.382;5.260;2022-09-09T04:04:18;100708.44;;;22.65;100.00
44765;BME280;30484;52.382;5.260;2022-09-09T04:06:47;100708.47;;;21.93;100.00
44765;BME280;30484;52.382;5.260;2022-09-09T04:09:17;100720.38;;;22.28;100.00
44765;BME280;30484;52.382;5.260;2022-09-09T04:11:48;100710.41;;;22.54;100.00
44765;BME280;30484;52.382;5.260;2022-09-09T04:14:16;100700.63;;;22.70;100.00
44765;BME280;30484;52.382;5.260;2022-09-09T04:16:45;100693.56;;;21.97;100.00
44765;BME280;30484;52.382;5.260;2022-09-09T04:19:13;100694.47;;;21.69;100.00
44765;BME280;30484;52.382;5.260;2022-09-09T04:21:42;100696.25;;;21.79;100.00
44765;BME280;30484;52.382;5.260;2022-09-09T04:24:11;100695.41;;;21.78;100.00
44765;BME280;30484;52.382;5.260;2022-09-09T04:26:41;100689.41;;;21.57;100.00
44765;BME280;30484;52.382;5.260;2022-09-09T04:29:09;100690.06;;;21.86;100.00
44765;BME280;30484;52.382;5.260;2022-09-09T04:31:38;100691.00;;;21.49;100.00
44765;BME280;30484;52.382;5.260;2022-09-09T04:34:09;100688.41;;;21.76;100.00
44765;BME280;30484;52.382;5.260;2022-09-09T04:36:37;100689.28;;;21.48;100.00
44765;BME280;30484;52.382;5.260;2022-09-09T04:39:06;100685.75;;;21.66;100.00
44765;BME280;30484;52.382;5.260;2022-09-09T04:41:34;100688.47;;;21.66;100.00
44765;BME280;30484;52.382;5.260;2022-09-09T04:44:04;100688.13;;;21.97;100.00
44765;BME280;30484;52.382;5.260;2022-09-09T04:46:32;100683.53;;;22.15;100.00
44765;BME280;30484;52.382;5.260;2022-09-09T04:49:01;100682.34;;;21.64;100.00
44765;BME280;30484;52.382;5.260;2022-09-09T04:51:30;100674.59;;;22.05;100.00
44765;BME280;30484;52.382;5.260;2022-09-09T04:53:59;100684.28;;;22.26;100.00
44765;BME280;30484;52.382;5.260;2022-09-09T04:56:27;100679.41;;;21.47;100.00
44765;BME280;30484;52.382;5.260;2022-09-09T04:58:55;100678.94;;;21.34;100.00
44765;BME280;30484;52.382;5.260;2022-09-09T05:01:25;100673.97;;;21.47;100.00
44765;BME280;30484;52.382;5.260;2022-09-09T05:03:54;100673.91;;;21.85;100.00
44765;BME280;30484;52.382;5.260;2022-09-09T05:06:23;100672.41;;;21.27;100.00
44765;BME280;30484;52.382;5.260;2022-09-09T05:08:52;100669.28;;;21.67;100.00
44765;BME280;30484;52.382;5.260;2022-09-09T05:11:22;100666.53;;;21.95;100.00
44765;BME280;30484;52.382;5.260;2022-09-09T05:13:51;100669.47;;;22.02;100.00
44765;BME280;30484;52.382;5.260;2022-09-09T05:16:21;100671.91;;;22.31;100.00
44765;BME280;30484;52.382;5.260;2022-09-09T05:18:51;100676.78;;;21.83;100.00
44765;BME280;30484;52.382;5.260;2022-09-09T05:21:22;100674.06;;;22.64;100.00
44765;BME280;30484;52.382;5.260;2022-09-09T05:23:51;100686.16;;;21.71;100.00
44765;BME280;30484;52.382;5.260;2022-09-09T05:26:21;100682.66;;;22.33;100.00
44765;BME280;30484;52.382;5.260;2022-09-09T05:28:50;100682.69;;;22.15;100.00
44765;BME280;30484;52.382;5.260;2022-09-09T05:31:19;100685.03;;;21.18;100.00
44765;BME280;30484;52.382;5.260;2022-09-09T05:33:48;100683.69;;;21.96;100.00
44765;BME280;30484;52.382;5.260;2022-09-09T05:36:20;100683.97;;;22.29;100.00
44765;BME280;30484;52.382;5.260;2022-09-09T05:38:49;100675.06;;;22.00;100.00
44765;BME280;30484;52.382;5.260;2022-09-09T05:41:19;100670.09;;;21.50;100.00
44765;BME280;30484;52.382;5.260;2022-09-09T05:43:47;100671.59;;;22.52;100.00
44765;BME280;30484;52.382;5.260;2022-09-09T05:46:18;100684.84;;;22.29;100.00
44765;BME280;30484;52.382;5.260;2022-09-09T05:48:49;100683.44;;;22.25;100.00
44765;BME280;30484;52.382;5.260;2022-09-09T05:51:22;100689.53;;;22.01;100.00
44765;BME280;30484;52.382;5.260;2022-09-09T05:53:51;100680.88;;;22.23;100.00
44765;BME280;30484;52.382;5.260;2022-09-09T05:56:23;100687.16;;;22.06;100.00
44765;BME280;30484;52.382;5.260;2022-09-09T05:58:52;100678.47;;;21.84;100.00
44765;BME280;30484;52.382;5.260;2022-09-09T06:01:24;100686.88;;;21.45;100.00
44765;BME280;30484;52.382;5.260;2022-09-09T06:03:54;100682.84;;;21.49;100.00
44765;BME280;30484;52.382;5.260;2022-09-09T06:06:26;100679.19;;;21.86;100.00
44765;BME280;30484;52.382;5.260;2022-09-09T06:08:57;100689.72;;;21.53;100.00
44765;BME280;30484;52.382;5.260;2022-09-09T06:11:29;100692.63;;;22.06;100.00
44765;BME280;30484;52.382;5.260;2022-09-09T06:13:58;100692.25;;;22.01;100.00
44765;BME280;30484;52.382;5.260;2022-09-09T06:16:28;100689.91;;;22.06;100.00
44765;BME280;30484;52.382;5.260;2022-09-09T06:18:57;100695.06;;;22.09;100.00
44765;BME280;30484;52.382;5.260;2022-09-09T06:21:30;100695.47;;;22.85;100.00
44765;BME280;30484;52.382;5.260;2022-09-09T06:24:00;100681.97;;;22.31;100.00
44765;BME280;30484;52.382;5.260;2022-09-09T06:26:31;100689.91;;;22.42;100.00
44765;BME280;30484;52.382;5.260;2022-09-09T06:29:01;100674.50;;;22.33;100.00
44765;BME280;30484;52.382;5.260;2022-09-09T06:31:34;100691.59;;;22.07;100.00
44765;BME280;30484;52.382;5.260;2022-09-09T06:34:06;100677.56;;;23.59;100.00
44765;BME280;30484;52.382;5.260;2022-09-09T06:36:38;100669.69;;;22.45;100.00
44765;BME280;30484;52.382;5.260;2022-09-09T06:39:08;100675.28;;;23.30;100.00
44765;BME280;30484;52.382;5.260;2022-09-09T06:41:41;100675.47;;;23.37;100.00
44765;BME280;30484;52.382;5.260;2022-09-09T06:44:10;100666.94;;;23.32;100.00
44765;BME280;30484;52.382;5.260;2022-09-09T06:46:39;100664.44;;;23.55;100.00
44765;BME280;30484;52.382;5.260;2022-09-09T06:49:08;100664.09;;;22.10;100.00
44765;BME280;30484;52.382;5.260;2022-09-09T06:51:39;100674.13;;;22.72;100.00
44765;BME280;30484;52.382;5.260;2022-09-09T06:54:11;100665.97;;;22.80;100.00
44765;BME280;30484;52.382;5.260;2022-09-09T06:56:41;100670.78;;;23.72;100.00
44765;BME280;30484;52.382;5.260;2022-09-09T06:59:10;100667.09;;;23.30;100.00
44765;BME280;30484;52.382;5.260;2022-09-09T07:01:41;100673.41;;;23.04;100.00
44765;BME280;30484;52.382;5.260;2022-09-09T07:04:10;100670.63;;;23.22;100.00
44765;BME280;30484;52.382;5.260;2022-09-09T07:06:43;100665.66;;;22.83;100.00
44765;BME280;30484;52.382;5.260;2022-09-09T07:09:14;100665.84;;;23.16;100.00
44765;BME280;30484;52.382;5.260;2022-09-09T07:11:45;100665.06;;;24.24;100.00
44765;BME280;30484;52.382;5.260;2022-09-09T07:14:14;100668.19;;;23.54;100.00
44765;BME280;30484;52.382;5.260;2022-09-09T07:16:44;100677.84;;;23.32;100.00
44765;BME280;30484;52.382;5.260;2022-09-09T07:19:13;100668.06;;;23.72;100.00
44765;BME280;30484;52.382;5.260;2022-09-09T07:21:43;100666.75;;;24.25;100.00
44765;BME280;30484;52.382;5.260;2022-09-09T07:24:12;100668.50;;;23.08;100.00
44765;BME280;30484;52.382;5.260;2022-09-09T07:26:40;100657.03;;;23.90;100.00
44765;BME280;30484;52.382;5.260;2022-09-09T07:29:09;100661.25;;;24.83;100.00
44765;BME280;30484;52.382;5.260;2022-09-09T07:31:46;100667.09;;;23.89;100.00
44765;BME280;30484;52.382;5.260;2022-09-09T07:34:15;100661.94;;;23.86;100.00
44765;BME280;30484;52.382;5.260;2022-09-09T07:36:45;100652.59;;;24.63;100.00
44765;BME280;30484;52.382;5.260;2022-09-09T07:39:14;100666.38;;;24.70;100.00
44765;BME280;30484;52.382;5.260;2022-09-09T07:41:46;100666.03;;;23.82;100.00
44765;BME280;30484;52.382;5.260;2022-09-09T07:44:17;100668.75;;;23.23;100.00
44765;BME280;30484;52.382;5.260;2022-09-09T07:46:48;100660.78;;;23.97;100.00
44765;BME280;30484;52.382;5.260;2022-09-09T07:49:17;100670.00;;;24.29;100.00
44765;BME280;30484;52.382;5.260;2022-09-09T07:51:55;100675.78;;;24.42;100.00
44765;BME280;30484;52.382;5.260;2022-09-09T07:54:23;100671.78;;;24.94;100.00
44765;BME280;30484;52.382;5.260;2022-09-09T07:56:52;100675.06;;;24.90;100.00
44765;BME280;30484;52.382;5.260;2022-09-09T07:59:20;100675.09;;;24.73;100.00
44765;BME280;30484;52.382;5.260;2022-09-09T08:01:51;100677.28;;;24.86;100.00
44765;BME280;30484;52.382;5.260;2022-09-09T08:04:24;100676.19;;;25.04;100.00
44765;BME280;30484;52.382;5.260;2022-09-09T08:06:57;100664.34;;;25.59;100.00
44765;BME280;30484;52.382;5.260;2022-09-09T08:09:27;100663.47;;;25.27;100.00
44765;BME280;30484;52.382;5.260;2022-09-09T08:11:57;100671.72;;;25.11;100.00
44765;BME280;30484;52.382;5.260;2022-09-09T08:14:26;100684.53;;;25.19;100.00
44765;BME280;30484;52.382;5.260;2022-09-09T08:16:56;100678.34;;;25.64;100.00
44765;BME280;30484;52.382;5.260;2022-09-09T08:19:26;100683.09;;;24.58;100.00
44765;BME280;30484;52.382;5.260;2022-09-09T08:21:57;100690.91;;;25.03;100.00
44765;BME280;30484;52.382;5.260;2022-09-09T08:24:26;100684.31;;;25.28;100.00
44765;BME280;30484;52.382;5.260;2022-09-09T08:26:54;100683.25;;;25.29;100.00
44765;BME280;30484;52.382;5.260;2022-09-09T08:29:23;100673.81;;;25.48;100.00
44765;BME280;30484;52.382;5.260;2022-09-09T08:31:54;100678.56;;;25.78;100.00
44765;BME280;30484;52.382;5.260;2022-09-09T08:34:24;100679.81;;;25.75;100.00
44765;BME280;30484;52.382;5.260;2022-09-09T08:36:54;100677.34;;;25.57;100.00
44765;BME280;30484;52.382;5.260;2022-09-09T08:39:24;100682.59;;;24.38;100.00
44765;BME280;30484;52.382;5.260;2022-09-09T08:42:22;100681.34;;;24.98;100.00
44765;BME280;30484;52.382;5.260;2022-09-09T08:45:24;100692.38;;;24.66;100.00
44765;BME280;30484;52.382;5.260;2022-09-09T08:48:09;100699.50;;;24.42;100.00
44765;BME280;30484;52.382;5.260;2022-09-09T08:50:43;100703.06;;;24.75;100.00
44765;BME280;30484;52.382;5.260;2022-09-09T08:53:19;100695.22;;;24.72;100.00
44765;BME280;30484;52.382;5.260;2022-09-09T08:55:51;100691.47;;;24.73;100.00
44765;BME280;30484;52.382;5.260;2022-09-09T08:58:25;100690.41;;;24.83;100.00
44765;BME280;30484;52.382;5.260;2022-09-09T09:01:17;100694.19;;;25.38;100.00
44765;BME280;30484;52.382;5.260;2022-09-09T09:03:57;100695.75;;;25.95;100.00
44765;BME280;30484;52.382;5.260;2022-09-09T09:06:42;100700.72;;;25.28;100.00
44765;BME280;30484;52.382;5.260;2022-09-09T09:09:24;100694.22;;;24.65;100.00
44765;BME280;30484;52.382;5.260;2022-09-09T09:12:00;100704.84;;;25.16;100.00
44765;BME280;30484;52.382;5.260;2022-09-09T09:14:31;100687.66;;;25.47;100.00
44765;BME280;30484;52.382;5.260;2022-09-09T09:17:05;100699.53;;;25.23;100.00
44765;BME280;30484;52.382;5.260;2022-09-09T09:19:37;100696.94;;;26.00;100.00
44765;BME280;30484;52.382;5.260;2022-09-09T09:22:14;100706.53;;;26.43;100.00
44765;BME280;30484;52.382;5.260;2022-09-09T09:24:51;100704.78;;;25.72;100.00
44765;BME280;30484;52.382;5.260;2022-09-09T09:27:32;100705.00;;;25.62;100.00
44765;BME280;30484;52.382;5.260;2022-09-09T09:30:14;100710.50;;;25.14;100.00
44765;BME280;30484;52.382;5.260;2022-09-09T09:32:59;100707.22;;;26.22;100.00
44765;BME280;30484;52.382;5.260;2022-09-09T09:35:28;100713.50;;;25.99;100.00
44765;BME280;30484;52.382;5.260;2022-09-09T09:37:57;100709.19;;;25.50;100.00
44765;BME280;30484;52.382;5.260;2022-09-09T09:40:52;100702.69;;;25.51;100.00
44765;BME280;30484;52.382;5.260;2022-09-09T09:43:28;100718.28;;;24.78;100.00
44765;BME280;30484;52.382;5.260;2022-09-09T09:45:57;100711.94;;;25.50;100.00
44765;BME280;30484;52.382;5.260;2022-09-09T09:48:43;100713.41;;;26.39;100.00
44765;BME280;30484;52.382;5.260;2022-09-09T09:51:15;100722.28;;;25.63;100.00
44765;BME280;30484;52.382;5.260;2022-09-09T09:53:45;100726.25;;;25.04;100.00
44765;BME280;30484;52.382;5.260;2022-09-09T09:56:14;100718.94;;;24.88;100.00
44765;BME280;30484;52.382;5.260;2022-09-09T09:58:51;100719.13;;;25.43;100.00
44765;BME280;30484;52.382;5.260;2022-09-09T10:01:23;100721.53;;;24.65;100.00
44765;BME280;30484;52.382;5.260;2022-09-09T10:03:54;100716.06;;;24.81;100.00
44765;BME280;30484;52.382;5.260;2022-09-09T10:06:34;100708.50;;;25.79;100.00
44765;BME280;30484;52.382;5.260;2022-09-09T10:09:17;100715.34;;;24.88;100.00
44765;BME280;30484;52.382;5.260;2022-09-09T10:11:57;100703.09;;;25.71;100.00
44765;BME280;30484;52.382;5.260;2022-09-09T10:14:39;100713.09;;;24.99;100.00
44765;BME280;30484;52.382;5.260;2022-09-09T10:17:18;100708.00;;;24.88;100.00
44765;BME280;30484;52.382;5.260;2022-09-09T10:20:12;100708.50;;;26.34;100.00
44765;BME280;30484;52.382;5.260;2022-09-09T10:22:51;100703.25;;;26.24;100.00
44765;BME280;30484;52.382;5.260;2022-09-09T10:25:38;100708.59;;;25.63;100.00
44765;BME280;30484;52.382;5.260;2022-09-09T10:28:49;100716.72;;;24.34;100.00
44765;BME280;30484;52.382;5.260;2022-09-09T10:31:32;100710.72;;;24.96;100.00
44765;BME280;30484;52.382;5.260;2022-09-09T10:34:18;100709.13;;;25.19;100.00
44765;BME280;30484;52.382;5.260;2022-09-09T10:36:49;100710.66;;;25.61;100.00
44765;BME280;30484;52.382;5.260;2022-09-09T10:39:33;100711.38;;;25.07;100.00
44765;BME280;30484;52.382;5.260;2022-09-09T10:42:12;100703.81;;;27.11;100.00
44765;BME280;30484;52.382;5.260;2022-09-09T10:45:05;100701.09;;;25.88;100.00
44765;BME280;30484;52.382;5.260;2022-09-09T10:50:52;100696.25;;;26.22;100.00
44765;BME280;30484;52.382;5.260;2022-09-09T10:53:45;100697.06;;;26.68;100.00
44765;BME280;30484;52.382;5.260;2022-09-09T10:56:18;100698.63;;;26.63;100.00
44765;BME280;30484;52.382;5.260;2022-09-09T10:58:50;100695.03;;;26.24;100.00
44765;BME280;30484;52.382;5.260;2022-09-09T11:01:25;100692.81;;;26.96;100.00
44765;BME280;30484;52.382;5.260;2022-09-09T11:04:03;100696.19;;;25.52;100.00
44765;BME280;30484;52.382;5.260;2022-09-09T11:06:41;100703.44;;;25.68;100.00
44765;BME280;30484;52.382;5.260;2022-09-09T11:09:18;100691.81;;;25.66;100.00
44765;BME280;30484;52.382;5.260;2022-09-09T11:11:52;100703.00;;;26.11;100.00
44765;BME280;30484;52.382;5.260;2022-09-09T11:14:28;100696.72;;;25.79;100.00
44765;BME280;30484;52.382;5.260;2022-09-09T11:17:10;100693.28;;;26.84;100.00
44765;BME280;30484;52.382;5.260;2022-09-09T11:19:43;100692.44;;;25.99;100.00
44765;BME280;30484;52.382;5.260;2022-09-09T11:22:21;100699.66;;;26.24;100.00
44765;BME280;30484;52.382;5.260;2022-09-09T11:24:57;100699.97;;;26.06;100.00
44765;BME280;30484;52.382;5.260;2022-09-09T11:27:36;100684.66;;;26.20;100.00
44765;BME280;30484;52.382;5.260;2022-09-09T11:30:18;100696.06;;;26.99;100.00
44765;BME280;30484;52.382;5.260;2022-09-09T11:33:45;100703.16;;;26.56;100.00
44765;BME280;30484;52.382;5.260;2022-09-09T11:36:55;100693.31;;;26.00;100.00
44765;BME280;30484;52.382;5.260;2022-09-09T11:39:47;100685.44;;;26.28;100.00
44765;BME280;30484;52.382;5.260;2022-09-09T11:42:21;100688.50;;;26.86;100.00
44765;BME280;30484;52.382;5.260;2022-09-09T11:44:50;100690.56;;;26.69;100.00
44765;BME280;30484;52.382;5.260;2022-09-09T11:47:24;100681.94;;;26.34;100.00
44765;BME280;30484;52.382;5.260;2022-09-09T11:50:09;100675.06;;;27.07;100.00
44765;BME280;30484;52.382;5.260;2022-09-09T11:52:41;100685.38;;;26.37;100.00
44765;BME280;30484;52.382;5.260;2022-09-09T11:55:26;100681.06;;;27.32;100.00
44765;BME280;30484;52.382;5.260;2022-09-09T11:57:58;100679.06;;;26.51;100.00
44765;BME280;30484;52.382;5.260;2022-09-09T12:00:35;100670.34;;;26.85;100.00
44765;BME280;30484;52.382;5.260;2022-09-09T12:03:04;100672.69;;;26.89;100.00
44765;BME280;30484;52.382;5.260;2022-09-09T12:05:41;100675.31;;;27.12;100.00
44765;BME280;30484;52.382;5.260;2022-09-09T12:08:25;100670.34;;;26.32;100.00
44765;BME280;30484;52.382;5.260;2022-09-09T12:10:58;100665.72;;;26.48;100.00
44765;BME280;30484;52.382;5.260;2022-09-09T12:13:30;100662.75;;;27.17;100.00
44765;BME280;30484;52.382;5.260;2022-09-09T12:16:03;100675.38;;;26.44;100.00
44765;BME280;30484;52.382;5.260;2022-09-09T12:18:36;100669.13;;;26.50;100.00
44765;BME280;30484;52.382;5.260;2022-09-09T12:21:15;100668.72;;;26.76;100.00
44765;BME280;30484;52.382;5.260;2022-09-09T12:23:51;100660.09;;;26.79;100.00
44765;BME280;30484;52.382;5.260;2022-09-09T12:26:32;100672.97;;;26.03;100.00
44765;BME280;30484;52.382;5.260;2022-09-09T12:29:14;100680.53;;;25.69;100.00
44765;BME280;30484;52.382;5.260;2022-09-09T12:31:51;100676.41;;;25.42;100.00
44765;BME280;30484;52.382;5.260;2022-09-09T12:34:34;100678.69;;;26.16;100.00
44765;BME280;30484;52.382;5.260;2022-09-09T12:37:14;100671.56;;;26.83;100.00
44765;BME280;30484;52.382;5.260;2022-09-09T12:39:51;100670.31;;;27.15;100.00
44765;BME280;30484;52.382;5.260;2022-09-09T12:42:22;100670.47;;;26.54;100.00
44765;BME280;30484;52.382;5.260;2022-09-09T12:44:53;100669.56;;;27.36;100.00
44765;BME280;30484;52.382;5.260;2022-09-09T12:47:26;100670.03;;;26.27;100.00
44765;BME280;30484;52.382;5.260;2022-09-09T12:49:57;100664.75;;;26.26;100.00
44765;BME280;30484;52.382;5.260;2022-09-09T12:52:30;100667.22;;;25.66;100.00
44765;BME280;30484;52.382;5.260;2022-09-09T12:55:04;100663.41;;;27.04;100.00
44765;BME280;30484;52.382;5.260;2022-09-09T12:57:38;100671.03;;;27.54;100.00
44765;BME280;30484;52.382;5.260;2022-09-09T13:00:14;100669.09;;;26.35;100.00
44765;BME280;30484;52.382;5.260;2022-09-09T13:02:50;100672.94;;;26.26;100.00
44765;BME280;30484;52.382;5.260;2022-09-09T13:05:26;100657.28;;;26.73;100.00
44765;BME280;30484;52.382;5.260;2022-09-09T13:08:02;100669.06;;;26.58;100.00
44765;BME280;30484;52.382;5.260;2022-09-09T13:10:35;100663.38;;;26.60;100.00
44765;BME280;30484;52.382;5.260;2022-09-09T13:13:29;100672.88;;;27.17;100.00
44765;BME280;30484;52.382;5.260;2022-09-09T13:16:01;100673.91;;;27.31;100.00
44765;BME280;30484;52.382;5.260;2022-09-09T13:18:36;100675.81;;;27.00;100.00
44765;BME280;30484;52.382;5.260;2022-09-09T13:21:09;100671.94;;;27.40;100.00
44765;BME280;30484;52.382;5.260;2022-09-09T13:23:38;100663.13;;;25.85;100.00